New Bloomington, Ohio
Current Conditions -  °F | °C
As of 10:53 PM on Tuesday 25 Nov 2014 (Local Time) from KMNN Reporting Station
Overcast Overcast  
Wind Chill: 23°   Ceiling: 1600
Heat Index: 29°   Visibility: 10mi
Dew Point: 22°   Wind: 6mph
Humidity: 75%   Direction: 340°NNW
Pressure: 30.19"   Gusts: NA
Location:  40.58°N, 83.32°W
Report Text: KMNN 260353Z AUTO 34005KT 10SM OVC016 M02/M06 A3019 RMK AO2 SLP234 T10171056 TSNO
Loading
Personal Weather Stations






























Interactive Weather Map New forecast layout! Learn more

10-Day Weather Forecast

Advertisements
Track Severe Weather on mobile